createdAt,value
2018-10-03T00:00:22.477Z,98410.87
2018-10-03T00:02:51.217Z,98411.75
2018-10-03T00:05:19.997Z,98406.31
2018-10-03T00:07:48.858Z,98399.45
2018-10-03T00:10:17.562Z,98409.48
2018-10-03T00:12:46.400Z,98385.54
2018-10-03T00:15:15.103Z,98381.78
2018-10-03T00:17:44.344Z,98361.83
2018-10-03T00:20:13.074Z,98361.31
2018-10-03T00:22:41.898Z,98378.91
2018-10-03T00:25:10.665Z,98384.74
2018-10-03T00:27:39.317Z,98383.39
2018-10-03T00:30:07.979Z,98385.83
2018-10-03T00:32:36.794Z,98386.56
2018-10-03T00:35:05.877Z,98376.02
2018-10-03T00:37:34.578Z,98372.23
2018-10-03T00:40:03.386Z,98375.81
2018-10-03T00:42:32.145Z,98377.95
2018-10-03T00:45:01.042Z,98380.36
2018-10-03T00:47:29.791Z,98362.07
2018-10-03T00:49:59.169Z,98366.91
2018-10-03T00:52:27.926Z,98368.30
2018-10-03T00:54:56.574Z,98372.73
2018-10-03T00:57:25.258Z,98370.03
2018-10-03T00:59:53.956Z,98368.39
2018-10-03T01:02:22.698Z,98367.71
2018-10-03T01:04:51.374Z,98365.69
2018-10-03T01:07:20.041Z,98370.03
2018-10-03T01:09:48.706Z,98364.69
2018-10-03T01:12:17.411Z,98362.48
2018-10-03T01:14:46.305Z,98365.44
2018-10-03T01:17:14.978Z,98370.29
2018-10-03T01:19:43.886Z,98364.35
2018-10-03T01:22:12.593Z,98360.93
2018-10-03T01:24:41.474Z,98359.96
2018-10-03T01:27:10.237Z,98358.95
2018-10-03T01:29:39.109Z,98358.69
2018-10-03T01:32:07.810Z,98353.34
2018-10-03T01:34:36.470Z,98360.30
2018-10-03T01:37:05.237Z,98360.93
2018-10-03T01:39:33.975Z,98355.84
2018-10-03T01:42:02.715Z,98342.42
2018-10-03T01:44:31.513Z,98364.64
2018-10-03T01:47:00.189Z,98365.98
2018-10-03T01:49:29.373Z,98369.78
2018-10-03T01:51:58.121Z,98373.70
2018-10-03T01:54:26.811Z,98372.10
2018-10-03T01:56:55.517Z,98369.41
2018-10-03T01:59:24.189Z,98359.41
2018-10-03T02:01:53.031Z,98361.00
2018-10-03T02:04:21.784Z,98357.22
2018-10-03T02:06:50.685Z,98373.66
2018-10-03T02:09:19.459Z,98372.60
2018-10-03T02:11:48.143Z,98379.85
2018-10-03T02:14:17.486Z,98365.77
2018-10-03T02:16:46.361Z,98360.50
2018-10-03T02:19:15.115Z,98363.41
2018-10-03T02:21:43.886Z,98370.40
2018-10-03T02:24:12.595Z,98363.37
2018-10-03T02:26:41.633Z,98358.26
2018-10-03T02:29:10.433Z,98369.36
2018-10-03T02:31:39.162Z,98374.70
2018-10-03T02:34:08.304Z,98378.41
2018-10-03T02:36:37.047Z,98361.21
2018-10-03T02:39:07.934Z,98370.06
2018-10-03T02:41:36.705Z,98367.37
2018-10-03T02:44:08.331Z,98365.77
2018-10-03T02:46:37.018Z,98364.45
2018-10-03T02:49:05.675Z,98376.86
2018-10-03T02:51:34.341Z,98371.45
2018-10-03T02:54:03.038Z,98372.21
2018-10-03T02:56:31.877Z,98378.25
2018-10-03T02:59:00.725Z,98385.06
2018-10-03T03:01:29.462Z,98382.46
2018-10-03T03:03:58.129Z,98378.41
2018-10-03T03:06:26.964Z,98378.41
2018-10-03T03:08:55.755Z,98377.47
2018-10-03T03:11:24.568Z,98375.91
2018-10-03T03:13:53.311Z,98369.22
2018-10-03T03:16:22.046Z,98367.08
2018-10-03T03:18:50.855Z,98370.02
2018-10-03T03:21:19.556Z,98362.67
2018-10-03T03:23:48.241Z,98366.47
2018-10-03T03:26:16.950Z,98367.42
2018-10-03T03:28:45.725Z,98373.33
2018-10-03T03:31:14.411Z,98373.71
2018-10-03T03:33:43.090Z,98381.31
2018-10-03T03:36:11.814Z,98373.52
2018-10-03T03:38:40.601Z,98384.21
2018-10-03T03:41:09.369Z,98385.23
2018-10-03T03:43:38.060Z,98381.47
2018-10-03T03:46:06.925Z,98382.27
2018-10-03T03:48:35.659Z,98368.58
2018-10-03T03:51:04.441Z,98376.82
2018-10-03T03:53:33.085Z,98379.32
2018-10-03T03:56:01.913Z,98377.66
2018-10-03T03:58:30.681Z,98387.38
2018-10-03T04:00:59.506Z,98383.88
2018-10-03T04:03:28.274Z,98392.56
2018-10-03T04:05:56.930Z,98394.16
2018-10-03T04:08:25.777Z,98400.16
2018-10-03T04:10:54.433Z,98400.96
2018-10-03T04:13:23.093Z,98395.01
2018-10-03T04:15:51.885Z,98396.91
2018-10-03T04:18:20.624Z,98399.81
2018-10-03T04:20:49.534Z,98385.31
2018-10-03T04:23:18.276Z,98394.37
2018-10-03T04:25:46.932Z,98401.25
2018-10-03T04:28:15.693Z,98382.82
2018-10-03T04:30:44.353Z,98389.57
2018-10-03T04:33:12.981Z,98395.52
2018-10-03T04:35:41.988Z,98397.16
2018-10-03T04:38:10.729Z,98396.48
2018-10-03T04:40:39.399Z,98394.11
2018-10-03T04:43:08.193Z,98411.06
2018-10-03T04:45:36.859Z,98404.20
2018-10-03T04:48:05.671Z,98409.01
2018-10-03T04:50:34.333Z,98410.70
2018-10-03T04:53:03.010Z,98420.06
2018-10-03T04:55:31.698Z,98420.14
2018-10-03T04:58:00.446Z,98420.66
2018-10-03T05:00:29.248Z,98423.00
2018-10-03T05:02:57.911Z,98410.81
2018-10-03T05:05:26.781Z,98413.82
2018-10-03T05:07:55.439Z,98407.02
2018-10-03T05:10:24.218Z,98405.72
2018-10-03T05:12:52.889Z,98398.55
2018-10-03T05:15:21.717Z,98413.56
2018-10-03T05:17:50.625Z,98413.64
2018-10-03T05:20:19.377Z,98416.52
2018-10-03T05:22:48.070Z,98421.66
2018-10-03T05:25:16.785Z,98415.50
2018-10-03T05:27:45.644Z,98410.61
2018-10-03T05:30:14.446Z,98408.25
2018-10-03T05:32:43.307Z,98411.20
2018-10-03T05:35:12.022Z,98414.45
2018-10-03T05:37:40.704Z,98413.44
2018-10-03T05:40:09.434Z,98412.34
2018-10-03T05:42:38.248Z,98411.91
2018-10-03T05:45:06.938Z,98420.30
2018-10-03T05:47:35.638Z,98427.85
2018-10-03T05:50:04.377Z,98427.05
2018-10-03T05:52:33.112Z,98425.70
2018-10-03T05:55:01.943Z,98435.36
2018-10-03T05:57:30.775Z,98433.70
2018-10-03T05:59:59.483Z,98441.02
2018-10-03T06:02:28.225Z,98442.66
2018-10-03T06:04:56.975Z,98451.21
2018-10-03T06:07:25.790Z,98449.06
2018-10-03T06:09:54.591Z,98460.57
2018-10-03T06:12:23.266Z,98455.30
2018-10-03T06:14:52.286Z,98465.92
2018-10-03T06:17:21.114Z,98467.64
2018-10-03T06:19:50.058Z,98471.59
2018-10-03T06:22:18.815Z,98488.89
2018-10-03T06:24:47.613Z,98478.06
2018-10-03T06:27:16.425Z,98485.37
2018-10-03T06:29:45.551Z,98490.67
2018-10-03T06:32:14.717Z,98495.44
2018-10-03T06:34:43.590Z,98504.69
2018-10-03T06:37:12.667Z,98506.87
2018-10-03T06:39:41.494Z,98513.64
2018-10-03T06:42:10.242Z,98522.54
2018-10-03T06:44:38.978Z,98515.78
2018-10-03T06:47:07.747Z,98528.33
2018-10-03T06:49:36.711Z,98528.55
2018-10-03T06:52:05.461Z,98541.69
2018-10-03T06:54:34.241Z,98544.09
2018-10-03T06:57:03.224Z,98539.08
2018-10-03T06:59:32.059Z,98543.05
2018-10-03T07:02:00.758Z,98551.53
2018-10-03T07:04:29.522Z,98550.44
2018-10-03T07:06:58.241Z,98541.94
2018-10-03T07:09:26.989Z,98553.97
2018-10-03T07:11:55.710Z,98555.66
2018-10-03T07:14:24.504Z,98559.08
2018-10-03T07:16:53.170Z,98564.35
2018-10-03T07:19:21.998Z,98554.48
2018-10-03T07:21:50.681Z,98563.38
2018-10-03T07:24:19.985Z,98566.23
2018-10-03T07:26:48.641Z,98577.59
2018-10-03T07:29:17.393Z,98575.17
2018-10-03T07:31:46.130Z,98565.98
2018-10-03T07:34:14.829Z,98579.37
2018-10-03T07:36:43.539Z,98582.40
2018-10-03T07:39:12.381Z,98594.30
2018-10-03T07:41:41.042Z,98589.48
2018-10-03T07:44:09.891Z,98595.17
2018-10-03T07:46:38.681Z,98594.73
2018-10-03T07:49:07.506Z,98591.33
2018-10-03T07:51:36.233Z,98594.77
2018-10-03T07:54:05.038Z,98584.73
2018-10-03T07:56:33.718Z,98592.45
2018-10-03T07:59:02.484Z,98596.72
2018-10-03T08:01:31.147Z,98599.68
2018-10-03T08:03:59.894Z,98611.58
2018-10-03T08:06:28.700Z,98605.08
2018-10-03T08:08:57.357Z,98606.03
2018-10-03T08:11:26.161Z,98612.20
2018-10-03T08:13:54.937Z,98610.89
2018-10-03T08:16:23.713Z,98605.22
2018-10-03T08:18:52.377Z,98609.64
2018-10-03T08:21:21.070Z,98614.64
2018-10-03T08:23:49.780Z,98619.46
2018-10-03T08:26:18.457Z,98615.39
2018-10-03T08:28:47.128Z,98610.03
2018-10-03T08:31:16.266Z,98622.77
2018-10-03T08:33:44.941Z,98624.38
2018-10-03T08:36:13.597Z,98625.30
2018-10-03T08:38:42.324Z,98624.44
2018-10-03T08:41:11.090Z,98620.84
2018-10-03T08:43:39.781Z,98616.98
2018-10-03T08:46:09.026Z,98620.86
2018-10-03T08:48:38.079Z,98622.71
2018-10-03T08:51:06.877Z,98620.86
2018-10-03T08:53:35.574Z,98620.76
2018-10-03T08:56:04.393Z,98629.59
2018-10-03T08:58:33.137Z,98627.18
2018-10-03T09:01:01.749Z,98622.60
2018-10-03T09:03:30.467Z,98630.59
2018-10-03T09:05:59.181Z,98626.78
2018-10-03T09:08:27.909Z,98635.94
2018-10-03T09:10:56.706Z,98631.89
2018-10-03T09:13:25.402Z,98632.48
2018-10-03T09:15:54.150Z,98629.47
2018-10-03T09:18:22.797Z,98639.66
2018-10-03T09:20:51.514Z,98639.64
2018-10-03T09:23:20.309Z,98641.80
2018-10-03T09:25:48.970Z,98638.70
2018-10-03T09:28:17.688Z,98626.28
2018-10-03T09:30:46.502Z,98631.25
2018-10-03T09:33:15.149Z,98639.30
2018-10-03T09:35:43.834Z,98634.45
2018-10-03T09:38:12.608Z,98635.28
2018-10-03T09:40:41.318Z,98632.34
2018-10-03T09:43:10.350Z,98643.34
2018-10-03T09:45:39.013Z,98647.56
2018-10-03T09:48:07.782Z,98659.23
2018-10-03T09:50:36.471Z,98645.42
2018-10-03T09:53:05.157Z,98651.91
2018-10-03T09:55:33.813Z,98649.92
2018-10-03T09:58:02.568Z,98649.44
2018-10-03T10:00:36.730Z,98645.48
2018-10-03T10:03:05.571Z,98653.23
2018-10-03T10:05:34.322Z,98666.20
2018-10-03T10:08:02.962Z,98652.23
2018-10-03T10:10:31.641Z,98647.00
2018-10-03T10:13:00.344Z,98652.98
2018-10-03T10:15:29.068Z,98650.57
2018-10-03T10:17:57.783Z,98651.20
2018-10-03T10:20:26.673Z,98658.92
2018-10-03T10:22:55.326Z,98649.86
2018-10-03T10:25:24.038Z,98645.20
2018-10-03T10:27:52.797Z,98646.81
2018-10-03T10:30:21.477Z,98637.69
2018-10-03T10:32:50.307Z,98637.69
2018-10-03T10:35:18.968Z,98639.98
2018-10-03T10:37:47.725Z,98643.67
2018-10-03T10:40:16.373Z,98651.09
2018-10-03T10:42:45.058Z,98650.57
2018-10-03T10:45:13.952Z,98646.42
2018-10-03T10:47:42.934Z,98645.06
2018-10-03T10:50:11.703Z,98644.19
2018-10-03T10:52:40.422Z,98644.92
2018-10-03T10:55:09.351Z,98657.77
2018-10-03T10:57:38.146Z,98658.00
2018-10-03T11:00:07.007Z,98664.79
2018-10-03T11:02:35.894Z,98672.73
2018-10-03T11:05:04.689Z,98685.03
2018-10-03T11:07:33.362Z,98684.78
2018-10-03T11:10:02.150Z,98678.81
2018-10-03T11:12:30.796Z,98681.44
2018-10-03T11:14:59.506Z,98678.04
2018-10-03T11:17:28.523Z,98674.09
2018-10-03T11:19:57.283Z,98676.16
2018-10-03T11:22:26.187Z,98683.31
2018-10-03T11:24:55.107Z,98677.82
2018-10-03T11:27:23.747Z,98673.75
2018-10-03T11:29:52.557Z,98678.84
2018-10-03T11:32:21.358Z,98688.67
2018-10-03T11:34:50.101Z,98674.95
2018-10-03T11:37:18.757Z,98685.56
2018-10-03T11:39:47.504Z,98680.48
2018-10-03T11:42:16.179Z,98680.88
2018-10-03T11:44:45.208Z,98679.86
2018-10-03T11:47:13.975Z,98685.03
2018-10-03T11:49:42.614Z,98683.00
2018-10-03T11:52:11.282Z,98676.38
2018-10-03T11:54:40.058Z,98678.20
2018-10-03T11:57:08.901Z,98679.15
2018-10-03T11:59:37.715Z,98679.67
2018-10-03T12:02:06.403Z,98675.36
2018-10-03T12:04:35.116Z,98676.13
2018-10-03T12:07:03.949Z,98672.74
2018-10-03T12:09:32.774Z,98675.27
2018-10-03T12:12:01.570Z,98678.84
2018-10-03T12:14:30.466Z,98670.09
2018-10-03T12:16:59.219Z,98659.75
2018-10-03T12:19:28.139Z,98663.70
2018-10-03T12:21:56.934Z,98664.26
2018-10-03T12:24:25.746Z,98657.38
2018-10-03T12:26:54.501Z,98665.31
2018-10-03T12:29:23.360Z,98662.95
2018-10-03T12:31:52.151Z,98663.15
2018-10-03T12:34:20.962Z,98663.02
2018-10-03T12:36:49.733Z,98666.85
2018-10-03T12:39:18.570Z,98675.97
2018-10-03T12:41:47.317Z,98674.48
2018-10-03T12:44:16.149Z,98670.38
2018-10-03T12:46:44.894Z,98668.88
2018-10-03T12:49:13.557Z,98666.59
2018-10-03T12:51:42.605Z,98667.20
2018-10-03T12:54:11.285Z,98671.94
2018-10-03T12:56:40.373Z,98677.61
2018-10-03T12:59:09.077Z,98674.86
2018-10-03T13:01:37.946Z,98687.07
2018-10-03T13:04:06.785Z,98678.34
2018-10-03T13:06:35.492Z,98667.79
2018-10-03T13:09:05.799Z,98670.70
2018-10-03T13:11:34.477Z,98675.37
2018-10-03T13:14:03.174Z,98664.08
2018-10-03T13:16:32.032Z,98666.00
2018-10-03T13:19:01.095Z,98666.47
2018-10-03T13:21:29.854Z,98659.04
2018-10-03T13:23:58.806Z,98674.59
2018-10-03T13:26:27.531Z,98670.09
2018-10-03T13:28:56.258Z,98669.20
2018-10-03T13:31:24.978Z,98673.50
2018-10-03T13:33:53.718Z,98667.57
2018-10-03T13:36:22.387Z,98661.34
2018-10-03T13:38:51.113Z,98664.58
2018-10-03T13:41:20.003Z,98660.55
2018-10-03T13:43:48.986Z,98678.99
2018-10-03T13:46:17.894Z,98673.79
2018-10-03T13:48:46.826Z,98663.78
2018-10-03T13:51:15.577Z,98668.81
2018-10-03T13:53:44.248Z,98667.61
2018-10-03T13:56:13.070Z,98666.98
2018-10-03T13:58:41.826Z,98675.84
2018-10-03T14:01:10.517Z,98684.60
2018-10-03T14:03:39.539Z,98684.84
2018-10-03T14:06:08.285Z,98692.77
2018-10-03T14:08:37.169Z,98693.91
2018-10-03T14:11:06.047Z,98693.72
2018-10-03T14:13:34.649Z,98705.42
2018-10-03T14:16:03.370Z,98702.22
2018-10-03T14:18:32.095Z,98698.09
2018-10-03T14:21:00.826Z,98691.82
2018-10-03T14:23:29.614Z,98697.82
2018-10-03T14:25:58.386Z,98701.45
2018-10-03T14:28:27.089Z,98700.11
2018-10-03T14:30:55.768Z,98702.14
2018-10-03T14:33:24.591Z,98713.27
2018-10-03T14:35:53.207Z,98708.66
2018-10-03T14:38:21.954Z,98710.66
2018-10-03T14:40:50.665Z,98713.05
2018-10-03T14:43:19.441Z,98721.70
2018-10-03T14:45:48.473Z,98717.86
2018-10-03T14:48:17.535Z,98720.09
2018-10-03T14:50:46.407Z,98734.31
2018-10-03T14:53:15.076Z,98721.45
2018-10-03T14:55:43.840Z,98721.70
2018-10-03T14:58:12.667Z,98716.02
2018-10-03T15:00:41.366Z,98716.87
2018-10-03T15:03:10.339Z,98719.23
2018-10-03T15:05:39.428Z,98723.34
2018-10-03T15:08:08.679Z,98725.02
2018-10-03T15:10:37.430Z,98714.20
2018-10-03T15:13:06.336Z,98725.70
2018-10-03T15:15:35.024Z,98727.23
2018-10-03T15:18:03.763Z,98728.52
2018-10-03T15:20:32.447Z,98731.28
2018-10-03T15:23:01.231Z,98732.05
2018-10-03T15:25:29.917Z,98747.02
2018-10-03T15:27:58.591Z,98749.70
2018-10-03T15:30:27.341Z,98749.41
2018-10-03T15:32:56.121Z,98752.30
2018-10-03T15:35:24.886Z,98749.77
2018-10-03T15:37:53.616Z,98743.34
2018-10-03T15:40:22.425Z,98743.59
2018-10-03T15:42:51.195Z,98753.75
2018-10-03T15:45:19.989Z,98757.34
2018-10-03T15:47:48.661Z,98751.33
2018-10-03T15:50:17.391Z,98758.55
2018-10-03T15:52:46.193Z,98763.39
2018-10-03T15:55:14.922Z,98751.64
2018-10-03T15:57:43.652Z,98764.91
2018-10-03T16:00:12.329Z,98768.27
2018-10-03T16:02:41.219Z,98778.96
2018-10-03T16:05:09.997Z,98773.34
2018-10-03T16:07:38.762Z,98776.25
2018-10-03T16:10:07.777Z,98778.22
2018-10-03T16:12:36.434Z,98784.28
2018-10-03T16:15:05.227Z,98787.92
2018-10-03T16:17:33.934Z,98803.17
2018-10-03T16:20:02.670Z,98804.25
2018-10-03T16:22:31.440Z,98804.58
2018-10-03T16:25:00.169Z,98800.88
2018-10-03T16:27:28.870Z,98806.08
2018-10-03T16:29:57.586Z,98811.63
2018-10-03T16:32:26.377Z,98812.73
2018-10-03T16:34:55.045Z,98820.68
2018-10-03T16:37:23.718Z,98819.95
2018-10-03T16:39:52.438Z,98827.34
2018-10-03T16:42:21.252Z,98829.32
2018-10-03T16:44:49.977Z,98828.84
2018-10-03T16:47:18.657Z,98837.75
2018-10-03T16:49:47.438Z,98844.77
2018-10-03T16:52:16.129Z,98840.34
2018-10-03T16:54:44.853Z,98853.94
2018-10-03T16:57:13.629Z,98846.92
2018-10-03T16:59:42.399Z,98854.50
2018-10-03T17:02:11.541Z,98857.22
2018-10-03T17:04:40.315Z,98864.39
2018-10-03T17:07:09.110Z,98865.09
2018-10-03T17:09:37.861Z,98868.66
2018-10-03T17:12:06.526Z,98868.06
2018-10-03T17:14:39.365Z,98868.20
2018-10-03T17:17:08.857Z,98870.72
2018-10-03T17:19:37.820Z,98877.99
2018-10-03T17:22:06.593Z,98882.54
2018-10-03T17:24:36.555Z,98886.09
2018-10-03T17:27:05.474Z,98892.58
2018-10-03T17:29:34.113Z,98901.30
2018-10-03T17:32:02.861Z,98901.05
2018-10-03T17:34:31.931Z,98905.99
2018-10-03T17:37:00.683Z,98901.38
2018-10-03T17:39:29.717Z,98907.89
2018-10-03T17:41:58.812Z,98901.43
2018-10-03T17:44:27.597Z,98905.02
2018-10-03T17:46:57.541Z,98914.02
2018-10-03T17:49:26.481Z,98917.28
2018-10-03T17:51:55.236Z,98915.92
2018-10-03T17:54:23.946Z,98920.05
2018-10-03T17:56:52.626Z,98924.84
2018-10-03T17:59:21.293Z,98924.16
2018-10-03T18:02:02.301Z,98927.04
2018-10-03T18:04:30.994Z,98928.43
2018-10-03T18:06:59.809Z,98929.59
2018-10-03T18:09:28.571Z,98927.91
2018-10-03T18:11:57.399Z,98925.61
2018-10-03T18:14:26.137Z,98934.30
2018-10-03T18:16:54.885Z,98947.28
2018-10-03T18:19:23.617Z,98951.63
2018-10-03T18:21:52.334Z,98953.27
2018-10-03T18:24:21.009Z,98953.08
2018-10-03T18:26:49.914Z,98956.33
2018-10-03T18:29:18.597Z,98956.93
2018-10-03T18:31:47.302Z,98957.19
2018-10-03T18:34:16.194Z,98959.58
2018-10-03T18:36:45.069Z,98962.31
2018-10-03T18:39:14.208Z,98958.56
2018-10-03T18:41:42.849Z,98955.92
2018-10-03T18:44:11.502Z,98960.05
2018-10-03T18:46:40.485Z,98961.12
2018-10-03T18:49:09.117Z,98962.70
2018-10-03T18:51:37.850Z,98962.52
2018-10-03T18:54:06.641Z,98964.73
2018-10-03T18:56:35.609Z,98968.23
2018-10-03T18:59:04.441Z,98966.03
2018-10-03T19:01:33.294Z,98974.18
2018-10-03T19:04:02.014Z,98973.88
2018-10-03T19:06:30.819Z,98972.31
2018-10-03T19:08:59.638Z,98981.83
2018-10-03T19:11:28.357Z,98982.36
2018-10-03T19:13:57.198Z,98987.52
2018-10-03T19:16:25.879Z,98990.25
2018-10-03T19:18:54.658Z,98988.91
2018-10-03T19:21:23.381Z,98994.56
2018-10-03T19:23:52.230Z,98993.81
2018-10-03T19:26:22.919Z,98994.30
2018-10-03T19:28:51.562Z,98985.45
2018-10-03T19:31:20.258Z,98991.66
2018-10-03T19:33:49.374Z,98982.54
2018-10-03T19:36:18.494Z,98987.66
2018-10-03T19:38:47.385Z,98992.49
2018-10-03T19:41:16.219Z,98994.97
2018-10-03T19:43:44.986Z,98995.52
2018-10-03T19:46:13.811Z,98993.91
2018-10-03T19:48:42.559Z,99000.41
2018-10-03T19:51:11.433Z,99000.14
2018-10-03T19:53:40.186Z,99000.14
2018-10-03T19:56:15.379Z,99000.95
2018-10-03T19:58:44.131Z,98999.86
2018-10-03T20:01:12.926Z,99001.23
2018-10-03T20:03:41.691Z,99004.48
2018-10-03T20:06:10.695Z,99005.27
2018-10-03T20:08:39.495Z,99003.66
2018-10-03T20:11:08.295Z,99012.86
2018-10-03T20:13:37.265Z,99009.59
2018-10-03T20:16:06.050Z,99011.78
2018-10-03T20:18:34.835Z,99016.91
2018-10-03T20:21:03.576Z,99016.92
2018-10-03T20:23:32.534Z,99008.83
2018-10-03T20:26:01.299Z,99002.89
2018-10-03T20:28:30.042Z,99005.31
2018-10-03T20:30:58.824Z,99007.73
2018-10-03T20:33:27.479Z,99013.67
2018-10-03T20:35:56.218Z,99020.13
2018-10-03T20:38:25.027Z,99019.88
2018-10-03T20:40:53.679Z,99013.39
2018-10-03T20:43:22.393Z,99011.23
2018-10-03T20:45:51.287Z,99012.59
2018-10-03T20:48:20.236Z,99014.47
2018-10-03T20:50:48.874Z,99019.05
2018-10-03T20:53:17.501Z,99017.42
2018-10-03T20:55:46.274Z,99017.17
2018-10-03T20:58:15.042Z,99015.02
2018-10-03T21:00:43.762Z,99015.80
2018-10-03T21:03:12.512Z,99018.50
2018-10-03T21:05:41.197Z,99009.06
2018-10-03T21:08:09.999Z,99013.62
2018-10-03T21:10:39.001Z,99012.20
2018-10-03T21:13:07.969Z,99018.94
2018-10-03T21:15:36.651Z,99021.91
2018-10-03T21:18:05.330Z,99027.00
2018-10-03T21:20:34.161Z,99022.42
2018-10-03T21:23:02.823Z,99026.16
2018-10-03T21:25:31.621Z,99032.91
2018-10-03T21:28:00.405Z,99042.87
2018-10-03T21:30:29.094Z,99042.84
2018-10-03T21:32:57.801Z,99033.14
2018-10-03T21:35:26.572Z,99043.11
2018-10-03T21:37:55.586Z,99046.58
2018-10-03T21:40:24.370Z,99040.92
2018-10-03T21:42:53.090Z,99042.23
2018-10-03T21:45:21.830Z,99036.04
2018-10-03T21:47:50.524Z,99045.19
2018-10-03T21:50:19.338Z,99045.70
2018-10-03T21:52:48.086Z,99036.77
2018-10-03T21:55:16.779Z,99035.16
2018-10-03T21:57:45.460Z,99037.55
2018-10-03T22:00:14.117Z,99033.20
2018-10-03T22:02:42.790Z,99027.00
2018-10-03T22:05:11.518Z,99031.58
2018-10-03T22:07:40.823Z,99034.80
2018-10-03T22:10:09.538Z,99038.80
2018-10-03T22:12:38.401Z,99036.59
2018-10-03T22:15:07.161Z,99035.21
2018-10-03T22:17:40.625Z,99030.05
2018-10-03T22:20:09.989Z,99041.02
2018-10-03T22:22:38.734Z,99039.08
2018-10-03T22:25:07.604Z,99039.34
2018-10-03T22:27:36.412Z,99043.63
2018-10-03T22:30:05.677Z,99043.52
2018-10-03T22:32:34.437Z,99041.59
2018-10-03T22:35:03.209Z,99037.56
2018-10-03T22:37:31.881Z,99044.00
2018-10-03T22:40:00.603Z,99040.50
2018-10-03T22:42:29.538Z,99038.28
2018-10-03T22:44:58.235Z,99036.27
2018-10-03T22:47:26.873Z,99041.92
2018-10-03T22:49:55.898Z,99041.31
2018-10-03T22:52:24.862Z,99041.04
2018-10-03T22:54:53.890Z,99044.77
2018-10-03T22:57:22.561Z,99039.23
2018-10-03T22:59:51.318Z,99045.08
2018-10-03T23:02:20.027Z,99043.96
2018-10-03T23:04:48.679Z,99048.73
2018-10-03T23:07:17.433Z,99049.27
2018-10-03T23:09:46.729Z,99051.39
2018-10-03T23:12:15.518Z,99048.75
2018-10-03T23:14:44.185Z,99043.08
2018-10-03T23:17:12.945Z,99050.33
2018-10-03T23:19:41.785Z,99051.34
2018-10-03T23:22:10.536Z,99058.02
2018-10-03T23:24:39.207Z,99058.50
2018-10-03T23:27:08.017Z,99057.44
2018-10-03T23:29:36.666Z,99062.52
2018-10-03T23:32:05.371Z,99058.95
2018-10-03T23:34:34.108Z,99064.31
2018-10-03T23:37:03.000Z,99065.66
2018-10-03T23:39:31.898Z,99072.07
2018-10-03T23:42:00.644Z,99070.38
2018-10-03T23:44:29.394Z,99074.13
2018-10-03T23:46:58.121Z,99071.36
2018-10-03T23:49:26.894Z,99073.52
2018-10-03T23:51:55.606Z,99077.80
2018-10-03T23:54:24.258Z,99082.61
2018-10-03T23:56:52.977Z,99081.62
2018-10-03T23:59:21.678Z,99084.87
